Time;durP1;ratioP1;P1;durP2;ratioP2;P2;SDS_P1;SDS_P2;PMS_P1;PMS_P2;Temp;Humidity;BMP_temperature;BMP_pressure;BME280_temperature;BME280_humidity;BME280_pressure;Samples;Min_cycle;Max_cycle;Signal;HPM_P1;HPM_P2
2023/10/21 00:00:10;;;;;;;;;;;;;;;12.43;74.41;99460.22;6213223;23;19918;-76
2023/10/21 00:02:35;;;;;;;;;;;;;;;12.43;73.55;99458.41;6213301;23;19908;-76
2023/10/21 00:05:02;;;;;;;;;;;;;;;12.30;73.51;99457.88;6213032;23;19923;-76
2023/10/21 00:07:27;;;;;;;;;;;;;;;12.28;74.24;99453.53;6213494;23;19912;-77
2023/10/21 00:09:52;;;;;;;;;;;;;;;12.11;74.76;99460.13;6213127;23;19974;-76
2023/10/21 00:12:18;;;;;;;;;;;;;;;12.22;74.49;99459.88;6213517;23;19907;-76
2023/10/21 00:14:43;;;;;;;;;;;;;;;12.33;74.37;99470.16;6212862;23;19907;-76
2023/10/21 00:17:08;;;;;;;;;;;;;;;12.21;74.33;99470.47;6213117;23;20761;-76
2023/10/21 00:19:34;;;;;;;;;;;;;;;12.19;74.59;99454.66;6213484;23;19908;-75
2023/10/21 00:21:59;;;;;;;;;;;;;;;12.17;74.44;99459.97;6212793;23;19915;-75
2023/10/21 00:24:24;;;;;;;;;;;;;;;12.21;74.75;99462.53;6213198;23;19908;-75
2023/10/21 00:26:50;;;;;;;;;;;;;;;12.30;74.07;99462.31;6212807;23;19914;-76
2023/10/21 00:29:16;;;;;;;;;;;;;;;12.40;74.00;99463.78;6213205;23;20010;-75
2023/10/21 00:31:42;;;;;;;;;;;;;;;12.27;74.43;99454.47;6213503;23;19911;-75
2023/10/21 00:34:07;;;;;;;;;;;;;;;12.12;74.37;99461.00;6213360;23;20204;-76
2023/10/21 00:36:32;;;;;;;;;;;;;;;12.08;74.51;99459.31;6213039;23;19908;-76
2023/10/21 00:38:58;;;;;;;;;;;;;;;12.11;74.27;99467.19;6212812;23;19919;-75
2023/10/21 00:41:24;;;;;;;;;;;;;;;12.22;73.99;99464.25;6212896;23;19914;-76
2023/10/21 00:43:49;;;;;;;;;;;;;;;12.07;74.86;99465.53;6212276;23;19908;-76
2023/10/21 00:46:15;;;;;;;;;;;;;;;12.10;74.67;99466.31;6212947;23;19966;-76
2023/10/21 00:48:41;;;;;;;;;;;;;;;12.12;74.58;99464.50;6186054;23;19908;-75
2023/10/21 00:51:07;;;;;;;;;;;;;;;12.06;74.69;99466.44;6213246;23;19907;-75
2023/10/21 00:53:33;;;;;;;;;;;;;;;12.06;74.72;99469.06;6212155;23;19908;-76
2023/10/21 00:56:01;;;;;;;;;;;;;;;11.87;75.83;99466.84;6213071;23;19915;-76
2023/10/21 00:58:33;;;;;;;;;;;;;;;11.88;75.58;99462.41;6212764;23;19922;-76
2023/10/21 01:01:03;;;;;;;;;;;;;;;12.05;75.71;99467.31;6213405;23;19998;-76
2023/10/21 01:03:29;;;;;;;;;;;;;;;12.01;75.57;99469.19;6213076;23;19907;-76
2023/10/21 01:05:55;;;;;;;;;;;;;;;11.90;76.83;99468.56;6213124;23;19915;-76
2023/10/21 01:08:20;;;;;;;;;;;;;;;11.88;77.17;99467.69;6212889;23;20264;-76
2023/10/21 01:10:45;;;;;;;;;;;;;;;11.87;77.11;99466.84;6212816;23;19951;-77
2023/10/21 01:13:11;;;;;;;;;;;;;;;11.87;76.87;99458.91;6214399;23;20342;-76
2023/10/21 01:15:36;;;;;;;;;;;;;;;11.86;76.33;99466.88;6214705;23;19907;-75
2023/10/21 01:18:03;;;;;;;;;;;;;;;11.98;75.64;99470.13;6215053;23;20268;-77
2023/10/21 01:20:28;;;;;;;;;;;;;;;11.93;75.52;99472.03;6214596;23;19974;-76
2023/10/21 01:22:55;;;;;;;;;;;;;;;11.79;76.01;99463.53;6214994;23;20328;-76
2023/10/21 01:25:20;;;;;;;;;;;;;;;11.84;75.69;99469.56;6214728;23;19908;-76
2023/10/21 01:27:45;;;;;;;;;;;;;;;11.81;75.32;99467.84;6214413;23;19927;-76
2023/10/21 01:30:11;;;;;;;;;;;;;;;11.88;75.42;99465.94;6214857;23;19908;-76
2023/10/21 01:32:36;;;;;;;;;;;;;;;11.68;75.50;99458.50;6214597;23;20290;-76
2023/10/21 01:35:01;;;;;;;;;;;;;;;11.69;75.88;99468.13;6215102;23;19915;-76
2023/10/21 01:37:27;;;;;;;;;;;;;;;11.73;75.53;99461.88;6214313;23;19907;-76
2023/10/21 01:39:52;;;;;;;;;;;;;;;11.74;75.24;99468.03;6214900;23;20405;-76
2023/10/21 01:42:17;;;;;;;;;;;;;;;11.67;75.58;99459.38;6215004;23;19907;-76
2023/10/21 01:44:43;;;;;;;;;;;;;;;11.74;75.96;99468.03;6214480;23;20701;-76
2023/10/21 01:47:08;;;;;;;;;;;;;;;11.77;75.21;99462.66;6214132;23;19990;-76
2023/10/21 01:49:33;;;;;;;;;;;;;;;11.72;75.59;99464.56;6214439;23;19943;-75
2023/10/21 01:51:59;;;;;;;;;;;;;;;11.61;76.22;99472.75;6214389;23;20046;-76
2023/10/21 01:54:24;;;;;;;;;;;;;;;11.40;76.85;99482.88;6214195;23;20370;-75
2023/10/21 01:56:49;;;;;;;;;;;;;;;11.37;77.94;99490.00;6213977;23;19908;-75
2023/10/21 01:59:15;;;;;;;;;;;;;;;11.48;77.66;99477.44;6214560;23;19974;-76
2023/10/21 02:01:40;;;;;;;;;;;;;;;11.44;77.65;99487.19;6214174;23;19907;-75
2023/10/21 02:04:06;;;;;;;;;;;;;;;11.55;77.32;99481.66;6214167;23;20372;-76
2023/10/21 02:06:31;;;;;;;;;;;;;;;11.56;77.40;99475.47;6215245;23;19911;-75
2023/10/21 02:08:56;;;;;;;;;;;;;;;11.73;77.01;99484.81;6214061;23;19915;-75
2023/10/21 02:11:22;;;;;;;;;;;;;;;11.73;77.17;99485.66;6213824;23;19908;-76
2023/10/21 02:13:47;;;;;;;;;;;;;;;11.72;77.25;99485.72;6214149;23;19910;-75
2023/10/21 02:16:13;;;;;;;;;;;;;;;11.63;78.17;99489.41;6214561;23;20239;-76
2023/10/21 02:18:38;;;;;;;;;;;;;;;11.69;78.48;99501.63;6214691;23;20256;-76
2023/10/21 02:21:06;;;;;;;;;;;;;;;11.56;78.72;99493.13;6214000;23;19983;-75
2023/10/21 02:23:32;;;;;;;;;;;;;;;11.70;78.97;99491.03;6213711;23;19907;-75
2023/10/21 02:26:03;;;;;;;;;;;;;;;11.75;79.56;99491.78;6214041;23;19914;-76
2023/10/21 02:28:28;;;;;;;;;;;;;;;11.73;79.19;99496.25;6214214;23;19911;-76
2023/10/21 02:30:54;;;;;;;;;;;;;;;11.78;78.95;99504.91;6214109;23;19942;-75
2023/10/21 02:33:19;;;;;;;;;;;;;;;11.83;78.37;99503.06;6213944;23;19908;-75
2023/10/21 02:35:45;;;;;;;;;;;;;;;11.68;78.20;99502.53;6214041;23;19912;-76
2023/10/21 02:38:10;;;;;;;;;;;;;;;11.74;78.09;99518.22;6213545;23;19943;-75
2023/10/21 02:40:40;;;;;;;;;;;;;;;11.73;77.90;99522.66;6213861;23;19915;-75
2023/10/21 02:43:05;;;;;;;;;;;;;;;11.69;77.68;99526.25;6214352;23;20355;-75
2023/10/21 02:45:31;;;;;;;;;;;;;;;11.50;77.23;99517.88;6213793;23;19935;-76
2023/10/21 02:47:56;;;;;;;;;;;;;;;11.44;76.89;99518.03;6214440;23;19992;-75
2023/10/21 02:50:21;;;;;;;;;;;;;;;11.26;77.26;99527.19;6214347;23;19907;-75
2023/10/21 02:52:47;;;;;;;;;;;;;;;11.31;77.27;99527.97;6213828;23;20120;-76
2023/10/21 02:55:12;;;;;;;;;;;;;;;11.31;77.02;99542.94;6213765;23;20336;-75
2023/10/21 02:57:37;;;;;;;;;;;;;;;11.40;76.69;99537.47;6213609;23;19908;-76
2023/10/21 03:00:10;;;;;;;;;;;;;;;11.37;76.27;99543.69;6213879;23;19936;-76
2023/10/21 03:02:35;;;;;;;;;;;;;;;11.27;77.24;99526.28;6213733;23;19911;-75
2023/10/21 03:05:01;;;;;;;;;;;;;;;11.29;77.07;99546.50;6214056;23;19958;-75
2023/10/21 03:07:26;;;;;;;;;;;;;;;11.26;76.71;99536.00;6214105;23;19908;-75
2023/10/21 03:09:51;;;;;;;;;;;;;;;11.27;77.09;99557.97;6213875;23;19942;-76
2023/10/21 03:12:17;;;;;;;;;;;;;;;11.39;76.42;99548.94;6213566;23;19986;-76
2023/10/21 03:14:42;;;;;;;;;;;;;;;11.39;75.83;99536.59;6186345;23;19935;-76
2023/10/21 03:17:07;;;;;;;;;;;;;;;11.27;76.25;99547.41;6214201;23;20377;-76
2023/10/21 03:19:33;;;;;;;;;;;;;;;11.21;76.76;99576.59;6213477;23;20315;-77
2023/10/21 03:21:58;;;;;;;;;;;;;;;11.03;76.55;99568.13;6181949;23;19908;-78
2023/10/21 03:24:23;;;;;;;;;;;;;;;10.88;78.01;99542.88;6208801;23;19991;-77
2023/10/21 03:26:49;;;;;;;;;;;;;;;11.07;78.29;99575.06;6213434;23;19912;-77
2023/10/21 03:29:14;;;;;;;;;;;;;;;11.04;78.46;99566.34;6213198;23;20350;-77
2023/10/21 03:31:39;;;;;;;;;;;;;;;11.05;78.80;99555.75;6213822;23;19943;-77
2023/10/21 03:34:04;;;;;;;;;;;;;;;11.17;78.46;99573.13;6213061;23;19912;-77
2023/10/21 03:36:30;;;;;;;;;;;;;;;11.16;78.62;99575.81;6213540;23;19908;-77
2023/10/21 03:38:55;;;;;;;;;;;;;;;11.13;78.57;99567.94;6213411;23;19912;-76
2023/10/21 03:41:20;;;;;;;;;;;;;;;11.18;78.21;99569.56;6213202;23;20243;-77
2023/10/21 03:43:46;;;;;;;;;;;;;;;11.11;78.38;99571.47;6213606;23;19908;-77
2023/10/21 03:46:17;;;;;;;;;;;;;;;11.14;77.92;99573.19;6213225;23;19946;-78
2023/10/21 03:48:42;;;;;;;;;;;;;;;11.14;77.56;99561.75;6213835;23;19915;-77
2023/10/21 03:51:10;;;;;;;;;;;;;;;11.12;77.37;99567.06;6213025;23;20001;-78
2023/10/21 03:53:36;;;;;;;;;;;;;;;11.04;77.26;99567.19;6213341;23;19958;-77
2023/10/21 03:56:02;;;;;;;;;;;;;;;11.07;76.69;99561.88;6181470;23;19908;-77
2023/10/21 03:58:28;;;;;;;;;;;;;;;11.11;76.42;99574.13;6209353;23;19908;-77
2023/10/21 04:00:59;;;;;;;;;;;;;;;10.99;76.39;99561.16;6212751;23;20335;-77
2023/10/21 04:03:25;;;;;;;;;;;;;;;10.89;76.63;99560.47;6213268;23;19908;-77
2023/10/21 04:05:51;;;;;;;;;;;;;;;10.98;76.48;99551.47;6213112;23;19915;-77
2023/10/21 04:08:16;;;;;;;;;;;;;;;10.93;76.66;99564.75;6213214;23;19916;-76
2023/10/21 04:10:41;;;;;;;;;;;;;;;10.86;77.30;99559.63;6213063;23;19999;-76
2023/10/21 04:13:07;;;;;;;;;;;;;;;10.80;77.41;99547.44;6213049;23;20346;-76
2023/10/21 04:15:32;;;;;;;;;;;;;;;10.95;77.31;99546.25;6213523;23;20328;-76
2023/10/21 04:17:58;;;;;;;;;;;;;;;10.84;77.44;99535.91;6213077;23;19912;-77
2023/10/21 04:20:23;;;;;;;;;;;;;;;10.80;78.13;99547.44;6212703;23;19908;-77
2023/10/21 04:22:48;;;;;;;;;;;;;;;10.80;77.93;99542.16;6212159;23;19919;-76
2023/10/21 04:25:14;;;;;;;;;;;;;;;10.85;78.17;99548.22;6213274;23;20221;-76
2023/10/21 04:27:39;;;;;;;;;;;;;;;10.86;78.09;99557.88;6212707;23;19938;-77
2023/10/21 04:30:05;;;;;;;;;;;;;;;10.89;77.74;99552.53;6212872;23;19908;-77
2023/10/21 04:32:31;;;;;;;;;;;;;;;10.90;77.72;99558.69;6211981;23;19907;-78
2023/10/21 04:34:56;;;;;;;;;;;;;;;10.96;77.90;99553.28;6212547;23;19903;-78
2023/10/21 04:37:22;;;;;;;;;;;;;;;11.13;77.07;99560.03;6211645;23;19907;-77
2023/10/21 04:39:47;;;;;;;;;;;;;;;11.11;76.53;99547.72;6212594;23;19911;-77
2023/10/21 04:42:13;;;;;;;;;;;;;;;11.10;76.48;99559.16;6210352;23;19912;-78
2023/10/21 04:44:38;;;;;;;;;;;;;;;10.97;77.11;99562.97;6209885;23;20049;-79
2023/10/21 04:47:04;;;;;;;;;;;;;;;10.97;76.46;99567.34;6209615;23;19912;-78
2023/10/21 04:49:30;;;;;;;;;;;;;;;10.91;76.70;99571.84;6211830;23;19908;-77
2023/10/21 04:51:55;;;;;;;;;;;;;;;10.96;76.79;99574.41;6211999;23;20357;-78
2023/10/21 04:54:20;;;;;;;;;;;;;;;10.91;76.79;99579.78;6211671;23;19908;-77
2023/10/21 04:56:46;;;;;;;;;;;;;;;10.98;76.40;99583.16;6212026;23;20331;-78
2023/10/21 04:59:11;;;;;;;;;;;;;;;10.69;77.92;99578.41;6212455;23;19915;-78
2023/10/21 05:01:36;;;;;;;;;;;;;;;10.81;77.96;99579.97;6212380;23;19908;-78
2023/10/21 05:04:02;;;;;;;;;;;;;;;10.80;78.38;99586.13;6212851;23;19908;-78
2023/10/21 05:06:27;;;;;;;;;;;;;;;10.93;77.84;99583.25;6213112;23;19973;-77
2023/10/21 05:08:52;;;;;;;;;;;;;;;10.82;78.42;99593.13;6212355;23;19943;-78
2023/10/21 05:11:18;;;;;;;;;;;;;;;10.89;79.12;99592.13;6212414;23;19938;-79
2023/10/21 05:13:43;;;;;;;;;;;;;;;10.96;79.31;99603.44;6211565;23;19907;-77
2023/10/21 05:16:08;;;;;;;;;;;;;;;11.08;78.89;99603.22;6210060;23;19915;-78
2023/10/21 05:18:33;;;;;;;;;;;;;;;11.09;79.03;99596.16;6211734;23;19907;-77
2023/10/21 05:20:59;;;;;;;;;;;;;;;11.22;79.20;99604.75;6211269;23;19908;-78
2023/10/21 05:23:24;;;;;;;;;;;;;;;11.33;78.92;99608.03;6210939;23;19916;-78
2023/10/21 05:25:50;;;;;;;;;;;;;;;11.32;78.90;99602.78;6211715;23;19908;-77
2023/10/21 05:28:15;;;;;;;;;;;;;;;11.41;78.91;99608.75;6177951;23;19912;-78
2023/10/21 05:30:42;;;;;;;;;;;;;;;11.49;78.89;99615.66;6209479;23;19915;-76
2023/10/21 05:33:07;;;;;;;;;;;;;;;11.53;78.67;99619.97;6211343;23;19939;-78
2023/10/21 05:35:32;;;;;;;;;;;;;;;11.67;78.73;99620.56;6211715;23;19912;-78
2023/10/21 05:37:59;;;;;;;;;;;;;;;11.82;77.89;99619.38;6210832;23;19916;-78
2023/10/21 05:40:25;;;;;;;;;;;;;;;11.72;78.89;99628.41;6212921;23;19969;-78
2023/10/21 05:42:50;;;;;;;;;;;;;;;11.85;79.08;99631.63;6209701;23;19916;-79
2023/10/21 05:45:15;;;;;;;;;;;;;;;12.03;79.16;99639.22;6210735;23;19981;-79
2023/10/21 05:47:41;;;;;;;;;;;;;;;12.21;79.04;99640.59;6211333;23;19915;-78
2023/10/21 05:50:06;;;;;;;;;;;;;;;12.29;78.78;99651.00;6210560;23;19911;-78
2023/10/21 05:52:32;;;;;;;;;;;;;;;12.41;79.42;99650.72;6210697;23;19990;-78
2023/10/21 05:54:57;;;;;;;;;;;;;;;12.62;79.31;99648.44;6210920;23;20066;-77
2023/10/21 05:57:22;;;;;;;;;;;;;;;12.84;80.03;99660.25;6211372;23;19908;-79
2023/10/21 05:59:48;;;;;;;;;;;;;;;13.05;78.52;99661.50;6183790;23;19912;-78
2023/10/21 06:02:13;;;;;;;;;;;;;;;13.31;77.91;99652.00;6209903;23;19958;-78
2023/10/21 06:04:39;;;;;;;;;;;;;;;13.44;78.10;99668.47;6211999;23;19990;-78
2023/10/21 06:07:04;;;;;;;;;;;;;;;13.56;77.63;99661.94;6212077;23;19971;-78
2023/10/21 06:09:30;;;;;;;;;;;;;;;13.54;77.18;99648.75;6211295;23;19915;-77
2023/10/21 06:11:55;;;;;;;;;;;;;;;13.88;76.54;99663.69;6185774;23;19911;-78
2023/10/21 06:14:21;;;;;;;;;;;;;;;14.28;75.67;99658.97;6211827;23;19915;-79
2023/10/21 06:16:47;;;;;;;;;;;;;;;14.47;74.57;99669.88;6210810;23;19931;-79
2023/10/21 06:19:12;;;;;;;;;;;;;;;14.58;73.37;99669.53;6209927;23;20248;-79
2023/10/21 06:21:37;;;;;;;;;;;;;;;14.78;73.12;99668.94;6207994;23;19911;-79
2023/10/21 06:24:03;;;;;;;;;;;;;;;14.90;72.43;99665.03;6177749;23;19908;-81
2023/10/21 06:26:31;;;;;;;;;;;;;;;15.04;73.02;99679.59;6205203;23;20394;-80
2023/10/21 06:28:56;;;;;;;;;;;;;;;15.07;72.24;99670.63;6210490;23;19908;-79
2023/10/21 06:31:22;;;;;;;;;;;;;;;15.37;70.62;99671.38;6209399;23;19966;-81
2023/10/21 06:33:47;;;;;;;;;;;;;;;15.49;70.61;99664.75;6209289;23;20010;-79
2023/10/21 06:36:12;;;;;;;;;;;;;;;15.68;70.17;99667.63;6208990;23;19918;-81
2023/10/21 06:38:38;;;;;;;;;;;;;;;16.09;67.78;99675.00;6210046;23;20018;-78
2023/10/21 06:41:03;;;;;;;;;;;;;;;15.67;69.45;99670.34;6211407;23;19908;-79
2023/10/21 06:43:28;;;;;;;;;;;;;;;16.03;69.22;99665.44;6210915;23;19938;-80
2023/10/21 06:45:54;;;;;;;;;;;;;;;16.30;68.94;99678.66;6209172;23;20001;-80
2023/10/21 06:48:19;;;;;;;;;;;;;;;16.60;68.13;99678.34;6208781;23;19919;-81
2023/10/21 06:50:45;;;;;;;;;;;;;;;16.88;66.75;99678.13;6211942;23;19911;-79
2023/10/21 06:53:10;;;;;;;;;;;;;;;16.80;67.22;99680.22;6209456;23;20363;-78
2023/10/21 06:55:42;;;;;;;;;;;;;;;17.38;64.85;99676.03;6212146;23;20011;-78
2023/10/21 06:58:08;;;;;;;;;;;;;;;17.22;65.89;99681.19;6213040;23;19915;-78
2023/10/21 07:00:33;;;;;;;;;;;;;;;17.50;64.66;99683.50;6212898;23;19912;-78
2023/10/21 07:02:58;;;;;;;;;;;;;;;17.87;65.41;99673.88;6213891;23;19915;-78
2023/10/21 07:05:24;;;;;;;;;;;;;;;17.53;65.08;99683.38;6213061;23;19911;-78
2023/10/21 07:07:49;;;;;;;;;;;;;;;18.11;63.39;99676.41;6213735;23;19923;-78
2023/10/21 07:10:14;;;;;;;;;;;;;;;18.46;62.10;99684.53;6212763;23;19920;-78
2023/10/21 07:12:40;;;;;;;;;;;;;;;18.58;62.78;99683.94;6212816;23;20315;-79
2023/10/21 07:15:06;;;;;;;;;;;;;;;18.64;61.50;99691.66;6211104;23;19919;-80
2023/10/21 07:17:32;;;;;;;;;;;;;;;18.77;61.54;99682.13;6210833;23;19911;-80
2023/10/21 07:19:58;;;;;;;;;;;;;;;18.61;61.11;99681.13;6210844;23;20331;-79
2023/10/21 07:22:23;;;;;;;;;;;;;;;18.98;60.19;99679.34;6210988;23;19919;-79
2023/10/21 07:24:53;;;;;;;;;;;;;;;19.13;60.37;99673.22;6213618;23;19908;-79
2023/10/21 07:27:18;;;;;;;;;;;;;;;19.45;59.78;99680.56;6213853;23;19990;-79
2023/10/21 07:29:43;;;;;;;;;;;;;;;19.65;59.96;99675.03;6213039;23;19947;-79
2023/10/21 07:32:09;;;;;;;;;;;;;;;19.69;59.49;99675.72;6212696;23;19939;-79
2023/10/21 07:34:34;;;;;;;;;;;;;;;20.13;57.46;99672.50;6213110;23;19938;-79
2023/10/21 07:36:59;;;;;;;;;;;;;;;19.90;59.30;99670.22;6213370;23;19911;-79
2023/10/21 07:39:25;;;;;;;;;;;;;;;19.96;58.98;99683.28;6213571;23;20006;-79
2023/10/21 07:41:50;;;;;;;;;;;;;;;20.24;58.71;99671.03;6213455;23;19907;-79
2023/10/21 07:44:16;;;;;;;;;;;;;;;20.29;57.12;99652.91;6213754;23;19915;-78
2023/10/21 07:46:41;;;;;;;;;;;;;;;20.48;57.97;99667.00;6213600;23;19912;-79
2023/10/21 07:49:07;;;;;;;;;;;;;;;20.44;58.28;99657.41;6213626;23;19915;-77
2023/10/21 07:51:32;;;;;;;;;;;;;;;20.87;57.20;99664.84;6213246;23;19907;-80
2023/10/21 07:53:58;;;;;;;;;;;;;;;20.83;58.09;99663.28;6212334;23;19908;-83
2023/10/21 07:56:23;;;;;;;;;;;;;;;21.09;56.78;99653.69;6213388;23;20014;-78
2023/10/21 07:58:48;;;;;;;;;;;;;;;21.32;56.54;99660.38;6181726;23;19915;-79
2023/10/21 08:01:14;;;;;;;;;;;;;;;21.56;55.84;99654.50;6206352;23;19912;-80
2023/10/21 08:03:39;;;;;;;;;;;;;;;21.68;55.93;99661.78;6213293;23;19912;-78
2023/10/21 08:06:05;;;;;;;;;;;;;;;21.94;55.32;99662.84;6213652;23;19997;-79
2023/10/21 08:08:32;;;;;;;;;;;;;;;22.11;54.62;99656.44;6212565;23;20342;-79
2023/10/21 08:11:02;;;;;;;;;;;;;;;21.62;56.13;99654.13;6213378;23;19939;-80
2023/10/21 08:13:27;;;;;;;;;;;;;;;21.88;55.57;99655.19;6213207;23;19949;-79
2023/10/21 08:15:53;;;;;;;;;;;;;;;21.94;57.04;99654.81;6212463;23;19915;-79
2023/10/21 08:18:18;;;;;;;;;;;;;;;22.06;56.15;99654.97;6211670;23;19912;-81
2023/10/21 08:20:43;;;;;;;;;;;;;;;22.15;55.61;99654.41;6211477;23;20300;-79
2023/10/21 08:23:09;;;;;;;;;;;;;;;21.98;56.10;99650.97;6212569;23;19904;-78
2023/10/21 08:25:34;;;;;;;;;;;;;;;22.06;56.64;99655.88;6211607;23;19912;-78
2023/10/21 08:28:01;;;;;;;;;;;;;;;22.22;56.53;99646.84;6212159;23;19912;-78
2023/10/21 08:30:27;;;;;;;;;;;;;;;22.30;56.21;99648.06;6212421;23;20316;-77
2023/10/21 08:32:52;;;;;;;;;;;;;;;22.39;55.80;99645.78;6212041;23;19915;-78
2023/10/21 08:35:18;;;;;;;;;;;;;;;22.51;55.81;99648.50;6212180;23;20251;-78
2023/10/21 08:37:43;;;;;;;;;;;;;;;22.59;55.69;99649.84;6211968;23;19942;-78
2023/10/21 08:40:10;;;;;;;;;;;;;;;22.42;56.20;99650.94;6213236;23;19912;-78
2023/10/21 08:42:35;;;;;;;;;;;;;;;22.35;56.51;99640.59;6212208;23;20014;-78
2023/10/21 08:45:05;;;;;;;;;;;;;;;22.59;56.30;99631.88;6211968;23;20310;-78
2023/10/21 08:47:31;;;;;;;;;;;;;;;22.80;55.79;99634.97;6211968;23;19946;-78
2023/10/21 08:49:56;;;;;;;;;;;;;;;22.85;55.67;99640.06;6212028;23;19908;-78
2023/10/21 08:52:23;;;;;;;;;;;;;;;22.50;56.56;99635.19;6211407;23;19983;-78
2023/10/21 08:54:49;;;;;;;;;;;;;;;22.59;57.30;99633.72;6213159;23;20283;-79
2023/10/21 08:57:16;;;;;;;;;;;;;;;22.94;56.03;99623.31;6212660;23;19955;-79
2023/10/21 08:59:42;;;;;;;;;;;;;;;23.04;55.29;99627.06;6213315;23;19998;-80
2023/10/21 09:02:07;;;;;;;;;;;;;;;23.15;55.28;99625.53;6211737;23;19961;-80
2023/10/21 09:04:33;;;;;;;;;;;;;;;22.99;54.95;99626.53;6212515;23;19978;-80
2023/10/21 09:06:59;;;;;;;;;;;;;;;22.86;55.54;99612.19;6212603;23;19934;-79
2023/10/21 09:09:27;;;;;;;;;;;;;;;23.05;55.83;99609.13;6212400;23;19915;-80
2023/10/21 09:12:13;;;;;;;;;;;;;;;23.14;55.08;99619.28;6212901;23;19966;-79
2023/10/21 09:14:51;;;;;;;;;;;;;;;23.02;55.20;99614.72;6213243;23;19912;-80
2023/10/21 09:17:17;;;;;;;;;;;;;;;23.03;54.70;99613.72;6212206;23;20021;-79
2023/10/21 09:19:42;;;;;;;;;;;;;;;23.07;54.61;99594.59;6211714;23;20378;-79
2023/10/21 09:22:20;;;;;;;;;;;;;;;23.11;54.06;99603.34;6211267;23;20327;-79
2023/10/21 09:24:46;;;;;;;;;;;;;;;23.23;53.82;99607.91;6212046;23;19939;-79
2023/10/21 09:27:15;;;;;;;;;;;;;;;23.28;53.91;99594.13;6206783;23;19911;-78
2023/10/21 09:29:41;;;;;;;;;;;;;;;23.62;53.24;99586.38;6211740;23;19958;-78
2023/10/21 09:32:06;;;;;;;;;;;;;;;23.84;52.23;99595.59;6212326;23;19908;-78
2023/10/21 09:34:33;;;;;;;;;;;;;;;23.86;52.28;99591.00;6213101;23;20307;-79
2023/10/21 09:37:02;;;;;;;;;;;;;;;23.82;51.11;99581.38;6213252;23;19922;-78
2023/10/21 09:39:30;;;;;;;;;;;;;;;23.86;51.08;99570.31;6212762;23;19922;-78
2023/10/21 09:41:58;;;;;;;;;;;;;;;24.08;50.11;99577.69;6213312;23;19923;-79
2023/10/21 09:44:24;;;;;;;;;;;;;;;23.96;49.61;99567.81;6211929;23;19915;-79
2023/10/21 09:46:50;;;;;;;;;;;;;;;24.03;49.38;99555.59;6213311;23;19908;-79
2023/10/21 09:49:16;;;;;;;;;;;;;;;24.03;49.26;99565.53;6211795;23;19923;-81
2023/10/21 09:51:52;;;;;;;;;;;;;;;24.33;49.31;99556.16;6213527;23;19911;-79
2023/10/21 09:54:20;;;;;;;;;;;;;;;24.49;49.38;99556.72;6180328;23;19998;-80
2023/10/21 09:56:46;;;;;;;;;;;;;;;24.60;47.05;99553.25;6212805;23;19966;-81
2023/10/21 09:59:12;;;;;;;;;;;;;;;24.75;46.58;99540.44;6212197;23;19907;-80
2023/10/21 10:01:39;;;;;;;;;;;;;;;24.98;45.94;99547.63;6212618;23;19908;-79
2023/10/21 10:04:07;;;;;;;;;;;;;;;24.89;45.65;99542.09;6212221;23;19916;-80
2023/10/21 10:06:32;;;;;;;;;;;;;;;24.90;45.78;99539.28;6212427;23;19908;-79
2023/10/21 10:08:58;;;;;;;;;;;;;;;24.76;46.12;99532.25;6212298;23;19967;-79
2023/10/21 10:11:24;;;;;;;;;;;;;;;25.07;46.16;99534.38;6212342;23;19929;-79
2023/10/21 10:13:50;;;;;;;;;;;;;;;25.01;44.37;99535.75;6213531;23;19908;-80
2023/10/21 10:16:22;;;;;;;;;;;;;;;25.19;44.15;99522.63;6212412;23;19915;-79
2023/10/21 10:18:50;;;;;;;;;;;;;;;25.25;44.85;99519.44;6213315;23;19908;-79
2023/10/21 10:21:16;;;;;;;;;;;;;;;25.28;43.94;99510.25;6213253;23;19907;-79
2023/10/21 10:23:48;;;;;;;;;;;;;;;25.01;44.84;99500.66;6214051;23;19919;-82
2023/10/21 10:26:16;;;;;;;;;;;;;;;25.28;44.34;99513.81;6213704;23;19986;-80
2023/10/21 10:28:41;;;;;;;;;;;;;;;25.31;43.81;99502.81;6213430;23;20343;-80
2023/10/21 10:31:07;;;;;;;;;;;;;;;25.55;42.85;99499.97;6212844;23;19908;-80
2023/10/21 10:33:33;;;;;;;;;;;;;;;25.60;43.29;99496.91;6213167;23;20225;-81
2023/10/21 10:36:00;;;;;;;;;;;;;;;25.71;42.62;99501.44;6213162;23;20733;-80
2023/10/21 10:38:31;;;;;;;;;;;;;;;25.70;42.63;99502.41;6213548;23;20201;-80
2023/10/21 10:41:06;;;;;;;;;;;;;;;25.85;42.72;99487.66;6212821;23;19915;-81
2023/10/21 10:43:34;;;;;;;;;;;;;;;26.00;41.13;99476.63;6212920;23;19908;-81
2023/10/21 10:46:00;;;;;;;;;;;;;;;26.05;41.02;99480.63;6212553;23;19907;-80
2023/10/21 10:48:26;;;;;;;;;;;;;;;26.18;40.91;99476.91;6212650;23;19916;-81
2023/10/21 10:50:57;;;;;;;;;;;;;;;26.29;39.92;99489.53;6213226;23;20259;-80
2023/10/21 10:53:23;;;;;;;;;;;;;;;26.51;39.97;99472.34;6212908;23;19995;-81
2023/10/21 10:55:49;;;;;;;;;;;;;;;26.40;40.11;99478.66;6212337;23;19939;-81
2023/10/21 10:58:20;;;;;;;;;;;;;;;26.57;39.97;99478.09;6212489;23;19907;-80
2023/10/21 11:00:46;;;;;;;;;;;;;;;26.57;39.51;99459.19;6212226;23;19908;-81
2023/10/21 11:03:27;;;;;;;;;;;;;;;26.70;38.97;99455.44;6213286;23;20312;-81
2023/10/21 11:05:55;;;;;;;;;;;;;;;26.71;38.96;99455.31;6211769;23;19915;-81
2023/10/21 11:08:21;;;;;;;;;;;;;;;26.61;38.01;99457.06;6212432;23;19923;-81
2023/10/21 11:10:46;;;;;;;;;;;;;;;26.71;38.21;99451.72;6213421;23;19915;-82
2023/10/21 11:13:12;;;;;;;;;;;;;;;26.90;38.53;99451.03;6211017;23;19908;-81
2023/10/21 11:15:44;;;;;;;;;;;;;;;27.02;37.11;99454.47;6211309;23;20251;-82
2023/10/21 11:18:12;;;;;;;;;;;;;;;27.19;37.96;99451.16;6210517;23;19994;-78
2023/10/21 11:20:47;;;;;;;;;;;;;;;27.40;36.60;99440.28;6210251;23;20050;-76
2023/10/21 11:23:13;;;;;;;;;;;;;;;27.51;36.91;99445.63;6210877;23;19935;-81
2023/10/21 11:25:40;;;;;;;;;;;;;;;27.55;36.63;99450.75;6211121;23;19919;-80
2023/10/21 11:28:05;;;;;;;;;;;;;;;27.66;36.44;99448.78;6209798;23;19986;-81
2023/10/21 11:30:31;;;;;;;;;;;;;;;27.81;36.46;99441.13;6211004;23;19950;-80
2023/10/21 11:32:56;;;;;;;;;;;;;;;27.84;35.11;99443.56;6210432;23;19907;-81
2023/10/21 11:35:23;;;;;;;;;;;;;;;27.85;35.74;99425.44;6211655;23;19908;-81
2023/10/21 11:37:50;;;;;;;;;;;;;;;28.01;35.01;99431.19;6198992;23;19915;-80
2023/10/21 11:40:16;;;;;;;;;;;;;;;27.95;34.94;99428.19;6179371;23;19934;-81
2023/10/21 11:42:56;;;;;;;;;;;;;;;28.00;34.17;99417.78;6210921;23;19916;-82
2023/10/21 11:45:22;;;;;;;;;;;;;;;28.25;34.30;99413.63;6212585;23;19915;-82
2023/10/21 11:47:52;;;;;;;;;;;;;;;28.16;34.47;99415.38;6211289;23;19904;-82
2023/10/21 11:50:20;;;;;;;;;;;;;;;28.35;34.22;99417.22;6211158;23;19908;-83
2023/10/21 11:52:45;;;;;;;;;;;;;;;28.35;34.23;99410.94;6212263;23;19942;-82
2023/10/21 12:22:01;;;;;;;;;;;;;;;28.84;32.60;99402.72;6029211;23;20329;-82
2023/10/21 12:33:08;;;;;;;;;;;;;;;28.82;33.18;99383.88;6028880;23;19973;-80
2023/10/21 12:40:59;;;;;;;;;;;;;;;29.11;32.77;99389.19;6029635;23;20380;-81
2023/10/21 12:43:29;;;;;;;;;;;;;;;29.02;31.92;99379.22;6029652;23;19924;-81
2023/10/21 12:45:58;;;;;;;;;;;;;;;28.95;31.82;99383.56;6030593;23;19910;-79
2023/10/21 12:48:25;;;;;;;;;;;;;;;29.01;32.32;99380.25;6030044;23;19916;-82
2023/10/21 12:50:51;;;;;;;;;;;;;;;29.22;32.07;99385.44;6030055;23;19984;-81
2023/10/21 12:53:16;;;;;;;;;;;;;;;29.16;31.68;99377.03;6079465;23;19947;-82
2023/10/21 12:55:43;;;;;;;;;;;;;;;29.30;31.75;99381.97;6116848;23;19917;-82
2023/10/21 12:58:09;;;;;;;;;;;;;;;29.21;31.32;99386.47;6153138;23;19908;-82
2023/10/21 13:00:34;;;;;;;;;;;;;;;29.36;31.40;99378.66;6209392;23;20227;-82
2023/10/21 13:03:00;;;;;;;;;;;;;;;29.46;31.16;99376.75;6180523;23;20296;-81
2023/10/21 13:05:25;;;;;;;;;;;;;;;29.55;31.17;99375.00;6209926;23;19912;-81
2023/10/21 13:07:50;;;;;;;;;;;;;;;29.61;31.37;99377.09;6209165;23;20328;-82
2023/10/21 13:10:16;;;;;;;;;;;;;;;29.48;31.00;99375.75;6209123;23;20323;-84
2023/10/21 13:12:41;;;;;;;;;;;;;;;29.44;31.24;99383.34;6183349;23;20405;-84
2023/10/21 13:15:13;;;;;;;;;;;;;;;29.64;30.86;99381.34;6209115;23;19909;-84
2023/10/21 13:17:41;;;;;;;;;;;;;;;29.75;29.97;99369.41;6182593;23;19950;-82
2023/10/21 13:20:16;;;;;;;;;;;;;;;29.65;29.97;99335.00;6209042;23;19907;-83
2023/10/21 13:22:42;;;;;;;;;;;;;;;29.91;29.28;99364.16;6209147;23;19912;-85